Wheatfield, Indiana
Current Conditions -  °F | °C
As of 3:55 AM on Sunday 25 Jan 2015 (Local Time) from KRZL Reporting Station
Haze Haze  
Wind Chill: 32°   Ceiling: Unl
Heat Index: 32°   Visibility: 3mi
Dew Point: 32°   Wind: 3mph
Humidity: 100%   Direction: 80°E
Pressure: 29.66"   Gusts: NA
Location:  41.19°N, 87.06°W
Report Text: KRZL 250955Z AUTO 08003KT 3SM BR CLR 00/00 A2966 RMK AO2
Loading
Personal Weather Stations






























Interactive Weather Map New forecast layout! Learn more

10-Day Weather Forecast

Advertisements
Track Severe Weather on mobile